sensor_id;sensor_type;location;lat;lon;timestamp;P1;durP1;ratioP1;P2;durP2;ratioP2
16826;SDS011;8530;49.540;8.576;2023-01-28T00:00:52;5.17;;;4.70;;
16826;SDS011;8530;49.540;8.576;2023-01-28T00:03:19;5.13;;;4.73;;
16826;SDS011;8530;49.540;8.576;2023-01-28T00:05:45;5.60;;;5.10;;
16826;SDS011;8530;49.540;8.576;2023-01-28T00:08:14;6.17;;;5.67;;
16826;SDS011;8530;49.540;8.576;2023-01-28T00:10:40;6.47;;;5.73;;
16826;SDS011;8530;49.540;8.576;2023-01-28T00:13:08;5.83;;;5.33;;
16826;SDS011;8530;49.540;8.576;2023-01-28T00:15:38;5.83;;;5.33;;
16826;SDS011;8530;49.540;8.576;2023-01-28T00:18:05;6.33;;;5.73;;
16826;SDS011;8530;49.540;8.576;2023-01-28T00:20:32;6.30;;;5.70;;
16826;SDS011;8530;49.540;8.576;2023-01-28T00:23:00;5.67;;;5.17;;
16826;SDS011;8530;49.540;8.576;2023-01-28T00:25:28;6.10;;;5.60;;
16826;SDS011;8530;49.540;8.576;2023-01-28T00:27:55;5.27;;;4.87;;
16826;SDS011;8530;49.540;8.576;2023-01-28T00:30:22;5.70;;;5.20;;
16826;SDS011;8530;49.540;8.576;2023-01-28T00:32:48;6.00;;;5.50;;
16826;SDS011;8530;49.540;8.576;2023-01-28T00:35:15;5.63;;;5.13;;
16826;SDS011;8530;49.540;8.576;2023-01-28T00:37:43;5.30;;;4.80;;
16826;SDS011;8530;49.540;8.576;2023-01-28T00:40:11;5.50;;;5.00;;
16826;SDS011;8530;49.540;8.576;2023-01-28T00:42:40;5.70;;;5.23;;
16826;SDS011;8530;49.540;8.576;2023-01-28T00:45:07;5.47;;;4.90;;
16826;SDS011;8530;49.540;8.576;2023-01-28T00:47:34;5.27;;;4.77;;
16826;SDS011;8530;49.540;8.576;2023-01-28T00:50:00;5.50;;;5.03;;
16826;SDS011;8530;49.540;8.576;2023-01-28T00:52:27;6.37;;;5.70;;
16826;SDS011;8530;49.540;8.576;2023-01-28T00:54:54;5.77;;;5.27;;
16826;SDS011;8530;49.540;8.576;2023-01-28T00:57:21;6.50;;;5.53;;
16826;SDS011;8530;49.540;8.576;2023-01-28T00:59:49;5.20;;;4.80;;
16826;SDS011;8530;49.540;8.576;2023-01-28T01:02:16;7.20;;;5.03;;
16826;SDS011;8530;49.540;8.576;2023-01-28T01:04:43;6.00;;;5.50;;
16826;SDS011;8530;49.540;8.576;2023-01-28T01:07:19;4.60;;;4.30;;
16826;SDS011;8530;49.540;8.576;2023-01-28T01:09:56;5.40;;;5.00;;
16826;SDS011;8530;49.540;8.576;2023-01-28T01:12:23;5.77;;;5.27;;
16826;SDS011;8530;49.540;8.576;2023-01-28T01:14:51;5.17;;;4.77;;
16826;SDS011;8530;49.540;8.576;2023-01-28T01:17:18;4.70;;;4.30;;
16826;SDS011;8530;49.540;8.576;2023-01-28T01:19:45;5.30;;;4.80;;
16826;SDS011;8530;49.540;8.576;2023-01-28T01:22:12;5.33;;;4.83;;
16826;SDS011;8530;49.540;8.576;2023-01-28T01:24:39;5.60;;;5.10;;
16826;SDS011;8530;49.540;8.576;2023-01-28T01:27:05;5.67;;;5.20;;
16826;SDS011;8530;49.540;8.576;2023-01-28T01:29:32;8.73;;;5.03;;
16826;SDS011;8530;49.540;8.576;2023-01-28T01:32:00;4.90;;;4.40;;
16826;SDS011;8530;49.540;8.576;2023-01-28T01:34:27;6.03;;;5.53;;
16826;SDS011;8530;49.540;8.576;2023-01-28T01:36:53;5.10;;;4.60;;
16826;SDS011;8530;49.540;8.576;2023-01-28T01:39:20;5.50;;;4.70;;
16826;SDS011;8530;49.540;8.576;2023-01-28T01:41:47;5.03;;;4.57;;
16826;SDS011;8530;49.540;8.576;2023-01-28T01:47:18;4.83;;;4.43;;
16826;SDS011;8530;49.540;8.576;2023-01-28T01:49:49;4.93;;;4.47;;
16826;SDS011;8530;49.540;8.576;2023-01-28T01:52:19;4.97;;;4.50;;
16826;SDS011;8530;49.540;8.576;2023-01-28T01:54:51;3.73;;;3.43;;
16826;SDS011;8530;49.540;8.576;2023-01-28T01:57:23;5.50;;;5.00;;
16826;SDS011;8530;49.540;8.576;2023-01-28T01:59:53;5.10;;;4.67;;
16826;SDS011;8530;49.540;8.576;2023-01-28T02:02:23;5.00;;;4.00;;
16826;SDS011;8530;49.540;8.576;2023-01-28T02:04:50;4.67;;;4.27;;
16826;SDS011;8530;49.540;8.576;2023-01-28T02:07:18;4.80;;;4.40;;
16826;SDS011;8530;49.540;8.576;2023-01-28T02:09:45;4.73;;;4.33;;
16826;SDS011;8530;49.540;8.576;2023-01-28T02:12:13;3.43;;;3.20;;
16826;SDS011;8530;49.540;8.576;2023-01-28T02:14:44;4.73;;;4.23;;
16826;SDS011;8530;49.540;8.576;2023-01-28T02:17:13;4.80;;;4.27;;
16826;SDS011;8530;49.540;8.576;2023-01-28T02:19:42;4.83;;;4.33;;
16826;SDS011;8530;49.540;8.576;2023-01-28T02:22:17;5.70;;;5.30;;
16826;SDS011;8530;49.540;8.576;2023-01-28T02:25:01;5.77;;;5.37;;
16826;SDS011;8530;49.540;8.576;2023-01-28T02:27:52;5.67;;;5.17;;
16826;SDS011;8530;49.540;8.576;2023-01-28T02:30:31;4.53;;;4.13;;
16826;SDS011;8530;49.540;8.576;2023-01-28T02:33:02;4.43;;;4.03;;
16826;SDS011;8530;49.540;8.576;2023-01-28T02:35:34;5.10;;;4.60;;
16826;SDS011;8530;49.540;8.576;2023-01-28T02:38:07;3.97;;;3.60;;
16826;SDS011;8530;49.540;8.576;2023-01-28T02:40:37;4.90;;;4.40;;
16826;SDS011;8530;49.540;8.576;2023-01-28T02:43:29;3.77;;;3.47;;
16826;SDS011;8530;49.540;8.576;2023-01-28T02:45:57;4.93;;;4.53;;
16826;SDS011;8530;49.540;8.576;2023-01-28T02:48:42;5.00;;;4.60;;
16826;SDS011;8530;49.540;8.576;2023-01-28T02:51:13;4.70;;;4.30;;
16826;SDS011;8530;49.540;8.576;2023-01-28T02:53:49;4.00;;;3.70;;
16826;SDS011;8530;49.540;8.576;2023-01-28T02:56:21;4.40;;;4.10;;
16826;SDS011;8530;49.540;8.576;2023-01-28T02:58:59;4.17;;;3.87;;
16826;SDS011;8530;49.540;8.576;2023-01-28T03:01:52;5.17;;;4.67;;
16826;SDS011;8530;49.540;8.576;2023-01-28T03:04:25;3.70;;;3.50;;
16826;SDS011;8530;49.540;8.576;2023-01-28T03:06:57;4.40;;;4.10;;
16826;SDS011;8530;49.540;8.576;2023-01-28T03:09:28;4.10;;;3.70;;
16826;SDS011;8530;49.540;8.576;2023-01-28T03:11:56;5.20;;;4.70;;
16826;SDS011;8530;49.540;8.576;2023-01-28T03:14:48;4.00;;;3.67;;
16826;SDS011;8530;49.540;8.576;2023-01-28T03:17:36;4.70;;;4.30;;
16826;SDS011;8530;49.540;8.576;2023-01-28T03:20:24;5.30;;;4.80;;
16826;SDS011;8530;49.540;8.576;2023-01-28T03:23:24;4.50;;;4.10;;
16826;SDS011;8530;49.540;8.576;2023-01-28T03:26:13;6.30;;;4.93;;
16826;SDS011;8530;49.540;8.576;2023-01-28T03:29:00;4.93;;;4.53;;
16826;SDS011;8530;49.540;8.576;2023-01-28T03:31:52;5.50;;;5.00;;
16826;SDS011;8530;49.540;8.576;2023-01-28T03:34:37;4.67;;;4.23;;
16826;SDS011;8530;49.540;8.576;2023-01-28T03:37:22;5.30;;;4.80;;
16826;SDS011;8530;49.540;8.576;2023-01-28T03:39:51;4.93;;;4.53;;
16826;SDS011;8530;49.540;8.576;2023-01-28T03:42:20;6.77;;;5.30;;
16826;SDS011;8530;49.540;8.576;2023-01-28T03:44:47;5.30;;;4.80;;
16826;SDS011;8530;49.540;8.576;2023-01-28T03:47:22;6.30;;;4.83;;
16826;SDS011;8530;49.540;8.576;2023-01-28T03:49:50;5.40;;;4.90;;
16826;SDS011;8530;49.540;8.576;2023-01-28T03:52:19;6.40;;;5.00;;
16826;SDS011;8530;49.540;8.576;2023-01-28T03:54:47;5.53;;;5.03;;
16826;SDS011;8530;49.540;8.576;2023-01-28T03:57:16;6.00;;;5.50;;
16826;SDS011;8530;49.540;8.576;2023-01-28T03:59:44;5.87;;;5.37;;
16826;SDS011;8530;49.540;8.576;2023-01-28T04:02:13;6.10;;;5.40;;
16826;SDS011;8530;49.540;8.576;2023-01-28T04:04:45;4.93;;;4.53;;
16826;SDS011;8530;49.540;8.576;2023-01-28T04:07:12;5.60;;;5.10;;
16826;SDS011;8530;49.540;8.576;2023-01-28T04:09:39;6.07;;;5.57;;
16826;SDS011;8530;49.540;8.576;2023-01-28T04:12:06;4.73;;;4.43;;
16826;SDS011;8530;49.540;8.576;2023-01-28T04:14:34;5.13;;;4.73;;
16826;SDS011;8530;49.540;8.576;2023-01-28T04:17:00;4.47;;;4.17;;
16826;SDS011;8530;49.540;8.576;2023-01-28T04:19:27;4.50;;;4.10;;
16826;SDS011;8530;49.540;8.576;2023-01-28T04:22:02;5.20;;;4.80;;
16826;SDS011;8530;49.540;8.576;2023-01-28T04:24:30;5.10;;;4.30;;
16826;SDS011;8530;49.540;8.576;2023-01-28T04:26:57;6.70;;;5.33;;
16826;SDS011;8530;49.540;8.576;2023-01-28T04:29:23;5.40;;;4.67;;
16826;SDS011;8530;49.540;8.576;2023-01-28T04:31:50;4.30;;;4.00;;
16826;SDS011;8530;49.540;8.576;2023-01-28T04:34:17;4.03;;;3.73;;
16826;SDS011;8530;49.540;8.576;2023-01-28T04:36:44;4.27;;;3.87;;
16826;SDS011;8530;49.540;8.576;2023-01-28T04:39:12;4.93;;;4.53;;
16826;SDS011;8530;49.540;8.576;2023-01-28T04:41:39;4.37;;;4.07;;
16826;SDS011;8530;49.540;8.576;2023-01-28T04:44:06;4.63;;;4.27;;
16826;SDS011;8530;49.540;8.576;2023-01-28T04:46:32;4.70;;;4.30;;
16826;SDS011;8530;49.540;8.576;2023-01-28T04:48:59;4.03;;;3.73;;
16826;SDS011;8530;49.540;8.576;2023-01-28T04:51:27;4.73;;;4.33;;
16826;SDS011;8530;49.540;8.576;2023-01-28T04:53:54;4.53;;;4.13;;
16826;SDS011;8530;49.540;8.576;2023-01-28T04:56:22;11.50;;;3.80;;
16826;SDS011;8530;49.540;8.576;2023-01-28T04:58:48;4.37;;;4.07;;
16826;SDS011;8530;49.540;8.576;2023-01-28T05:01:15;4.40;;;4.10;;
16826;SDS011;8530;49.540;8.576;2023-01-28T05:03:42;4.30;;;3.90;;
16826;SDS011;8530;49.540;8.576;2023-01-28T05:06:08;4.53;;;4.13;;
16826;SDS011;8530;49.540;8.576;2023-01-28T05:08:35;4.43;;;4.03;;
16826;SDS011;8530;49.540;8.576;2023-01-28T05:11:02;4.80;;;4.30;;
16826;SDS011;8530;49.540;8.576;2023-01-28T05:13:30;4.07;;;3.77;;
16826;SDS011;8530;49.540;8.576;2023-01-28T05:15:57;4.30;;;4.00;;
16826;SDS011;8530;49.540;8.576;2023-01-28T05:18:23;6.30;;;4.57;;
16826;SDS011;8530;49.540;8.576;2023-01-28T05:20:50;4.00;;;3.70;;
16826;SDS011;8530;49.540;8.576;2023-01-28T05:23:17;5.50;;;3.67;;
16826;SDS011;8530;49.540;8.576;2023-01-28T05:25:43;3.67;;;3.40;;
16826;SDS011;8530;49.540;8.576;2023-01-28T05:28:11;4.47;;;4.10;;
16826;SDS011;8530;49.540;8.576;2023-01-28T05:30:39;4.80;;;4.30;;
16826;SDS011;8530;49.540;8.576;2023-01-28T05:33:05;4.50;;;4.10;;
16826;SDS011;8530;49.540;8.576;2023-01-28T05:35:32;4.13;;;3.70;;
16826;SDS011;8530;49.540;8.576;2023-01-28T05:38:00;4.30;;;4.00;;
16826;SDS011;8530;49.540;8.576;2023-01-28T05:40:27;5.10;;;4.60;;
16826;SDS011;8530;49.540;8.576;2023-01-28T05:42:54;5.20;;;4.70;;
16826;SDS011;8530;49.540;8.576;2023-01-28T05:45:20;4.13;;;3.83;;
16826;SDS011;8530;49.540;8.576;2023-01-28T05:47:48;4.63;;;4.23;;
16826;SDS011;8530;49.540;8.576;2023-01-28T05:50:15;4.60;;;4.23;;
16826;SDS011;8530;49.540;8.576;2023-01-28T05:52:42;4.80;;;4.40;;
16826;SDS011;8530;49.540;8.576;2023-01-28T05:55:09;4.17;;;3.77;;
16826;SDS011;8530;49.540;8.576;2023-01-28T05:57:36;5.40;;;4.33;;
16826;SDS011;8530;49.540;8.576;2023-01-28T06:00:03;6.47;;;4.47;;
16826;SDS011;8530;49.540;8.576;2023-01-28T06:02:31;5.53;;;4.40;;
16826;SDS011;8530;49.540;8.576;2023-01-28T06:04:59;4.97;;;4.57;;
16826;SDS011;8530;49.540;8.576;2023-01-28T06:07:26;5.53;;;4.90;;
16826;SDS011;8530;49.540;8.576;2023-01-28T06:09:52;5.00;;;4.60;;
16826;SDS011;8530;49.540;8.576;2023-01-28T06:12:19;5.43;;;4.63;;
16826;SDS011;8530;49.540;8.576;2023-01-28T06:14:46;5.00;;;4.60;;
16826;SDS011;8530;49.540;8.576;2023-01-28T06:17:12;4.40;;;4.00;;
16826;SDS011;8530;49.540;8.576;2023-01-28T06:19:39;4.77;;;4.37;;
16826;SDS011;8530;49.540;8.576;2023-01-28T06:22:07;5.07;;;4.60;;
16826;SDS011;8530;49.540;8.576;2023-01-28T06:24:34;6.13;;;5.60;;
16826;SDS011;8530;49.540;8.576;2023-01-28T06:27:00;7.13;;;4.87;;
16826;SDS011;8530;49.540;8.576;2023-01-28T06:29:27;5.10;;;4.60;;
16826;SDS011;8530;49.540;8.576;2023-01-28T06:31:54;6.10;;;5.43;;
16826;SDS011;8530;49.540;8.576;2023-01-28T06:34:20;6.20;;;5.60;;
16826;SDS011;8530;49.540;8.576;2023-01-28T06:36:47;9.70;;;8.70;;
16826;SDS011;8530;49.540;8.576;2023-01-28T06:39:16;8.17;;;6.83;;
16826;SDS011;8530;49.540;8.576;2023-01-28T06:41:43;6.03;;;5.53;;
16826;SDS011;8530;49.540;8.576;2023-01-28T06:44:09;6.73;;;5.43;;
16826;SDS011;8530;49.540;8.576;2023-01-28T06:46:36;7.90;;;6.70;;
16826;SDS011;8530;49.540;8.576;2023-01-28T06:52:24;11.67;;;7.13;;
16826;SDS011;8530;49.540;8.576;2023-01-28T06:54:52;8.33;;;7.10;;
16826;SDS011;8530;49.540;8.576;2023-01-28T06:57:19;6.10;;;5.20;;
16826;SDS011;8530;49.540;8.576;2023-01-28T06:59:46;7.10;;;6.43;;
16826;SDS011;8530;49.540;8.576;2023-01-28T07:05:16;7.53;;;6.83;;
16826;SDS011;8530;49.540;8.576;2023-01-28T07:07:43;7.13;;;5.93;;
16826;SDS011;8530;49.540;8.576;2023-01-28T07:10:11;6.33;;;5.67;;
16826;SDS011;8530;49.540;8.576;2023-01-28T07:12:38;6.47;;;5.43;;
16826;SDS011;8530;49.540;8.576;2023-01-28T07:15:05;7.13;;;6.00;;
16826;SDS011;8530;49.540;8.576;2023-01-28T07:17:34;6.50;;;5.00;;
16826;SDS011;8530;49.540;8.576;2023-01-28T07:30:24;7.53;;;6.83;;
16826;SDS011;8530;49.540;8.576;2023-01-28T07:32:51;6.20;;;5.60;;
16826;SDS011;8530;49.540;8.576;2023-01-28T07:35:19;6.97;;;6.20;;
16826;SDS011;8530;49.540;8.576;2023-01-28T07:37:49;6.80;;;6.20;;
16826;SDS011;8530;49.540;8.576;2023-01-28T07:40:17;5.60;;;5.10;;
16826;SDS011;8530;49.540;8.576;2023-01-28T07:42:44;10.10;;;5.60;;
16826;SDS011;8530;49.540;8.576;2023-01-28T07:45:10;6.63;;;6.03;;
16826;SDS011;8530;49.540;8.576;2023-01-28T07:47:39;6.70;;;5.33;;
16826;SDS011;8530;49.540;8.576;2023-01-28T07:50:08;7.37;;;6.67;;
16826;SDS011;8530;49.540;8.576;2023-01-28T07:52:36;11.33;;;6.30;;
16826;SDS011;8530;49.540;8.576;2023-01-28T07:55:08;6.57;;;5.93;;
16826;SDS011;8530;49.540;8.576;2023-01-28T07:57:35;6.17;;;5.63;;
16826;SDS011;8530;49.540;8.576;2023-01-28T08:00:02;5.90;;;5.40;;
16826;SDS011;8530;49.540;8.576;2023-01-28T08:02:29;7.30;;;6.07;;
16826;SDS011;8530;49.540;8.576;2023-01-28T08:04:57;7.87;;;6.20;;
16826;SDS011;8530;49.540;8.576;2023-01-28T08:07:26;5.90;;;5.30;;
16826;SDS011;8530;49.540;8.576;2023-01-28T08:09:53;8.70;;;6.30;;
16826;SDS011;8530;49.540;8.576;2023-01-28T08:12:20;10.27;;;8.37;;
16826;SDS011;8530;49.540;8.576;2023-01-28T08:14:46;10.50;;;8.30;;
16826;SDS011;8530;49.540;8.576;2023-01-28T08:17:13;14.13;;;9.87;;
16826;SDS011;8530;49.540;8.576;2023-01-28T08:19:39;12.93;;;8.53;;
16826;SDS011;8530;49.540;8.576;2023-01-28T08:22:07;7.80;;;6.80;;
16826;SDS011;8530;49.540;8.576;2023-01-28T08:24:34;26.80;;;13.37;;
16826;SDS011;8530;49.540;8.576;2023-01-28T08:27:01;11.50;;;7.13;;
16826;SDS011;8530;49.540;8.576;2023-01-28T08:29:28;21.17;;;14.07;;
16826;SDS011;8530;49.540;8.576;2023-01-28T08:31:55;17.90;;;12.80;;
16826;SDS011;8530;49.540;8.576;2023-01-28T08:34:24;10.37;;;8.10;;
16826;SDS011;8530;49.540;8.576;2023-01-28T08:36:51;15.67;;;9.80;;
16826;SDS011;8530;49.540;8.576;2023-01-28T08:39:22;19.20;;;12.70;;
16826;SDS011;8530;49.540;8.576;2023-01-28T08:41:49;19.30;;;13.30;;
16826;SDS011;8530;49.540;8.576;2023-01-28T08:44:20;14.07;;;9.30;;
16826;SDS011;8530;49.540;8.576;2023-01-28T08:46:50;18.10;;;10.77;;
16826;SDS011;8530;49.540;8.576;2023-01-28T08:49:20;13.47;;;10.87;;
16826;SDS011;8530;49.540;8.576;2023-01-28T08:52:03;9.70;;;8.20;;
16826;SDS011;8530;49.540;8.576;2023-01-28T08:54:36;9.47;;;8.47;;
16826;SDS011;8530;49.540;8.576;2023-01-28T08:57:03;8.73;;;7.80;;
16826;SDS011;8530;49.540;8.576;2023-01-28T08:59:36;8.47;;;6.80;;
16826;SDS011;8530;49.540;8.576;2023-01-28T09:02:14;7.00;;;6.37;;
16826;SDS011;8530;49.540;8.576;2023-01-28T09:04:45;12.03;;;5.80;;
16826;SDS011;8530;49.540;8.576;2023-01-28T09:07:16;7.60;;;5.77;;
16826;SDS011;8530;49.540;8.576;2023-01-28T09:09:45;12.03;;;8.90;;
16826;SDS011;8530;49.540;8.576;2023-01-28T09:12:21;9.13;;;7.63;;
16826;SDS011;8530;49.540;8.576;2023-01-28T09:14:58;7.53;;;5.93;;
16826;SDS011;8530;49.540;8.576;2023-01-28T09:17:33;9.70;;;6.57;;
16826;SDS011;8530;49.540;8.576;2023-01-28T09:20:06;7.27;;;5.63;;
16826;SDS011;8530;49.540;8.576;2023-01-28T09:22:44;6.00;;;5.20;;
16826;SDS011;8530;49.540;8.576;2023-01-28T09:25:16;7.80;;;6.03;;
16826;SDS011;8530;49.540;8.576;2023-01-28T09:27:51;9.07;;;6.20;;
16826;SDS011;8530;49.540;8.576;2023-01-28T09:30:22;9.30;;;6.10;;
16826;SDS011;8530;49.540;8.576;2023-01-28T09:32:49;7.17;;;5.60;;
16826;SDS011;8530;49.540;8.576;2023-01-28T09:35:20;6.00;;;5.40;;
16826;SDS011;8530;49.540;8.576;2023-01-28T09:37:47;12.03;;;5.90;;
16826;SDS011;8530;49.540;8.576;2023-01-28T09:40:14;5.83;;;5.27;;
16826;SDS011;8530;49.540;8.576;2023-01-28T09:42:49;5.80;;;5.30;;
16826;SDS011;8530;49.540;8.576;2023-01-28T09:45:26;6.20;;;5.60;;
16826;SDS011;8530;49.540;8.576;2023-01-28T09:48:01;6.80;;;5.17;;
16826;SDS011;8530;49.540;8.576;2023-01-28T09:50:30;5.97;;;5.17;;
16826;SDS011;8530;49.540;8.576;2023-01-28T09:53:02;5.33;;;4.60;;
16826;SDS011;8530;49.540;8.576;2023-01-28T09:55:34;12.30;;;6.30;;
16826;SDS011;8530;49.540;8.576;2023-01-28T09:58:04;7.40;;;5.70;;
16826;SDS011;8530;49.540;8.576;2023-01-28T10:00:36;5.83;;;5.23;;
16826;SDS011;8530;49.540;8.576;2023-01-28T10:03:21;5.90;;;5.30;;
16826;SDS011;8530;49.540;8.576;2023-01-28T10:05:56;7.20;;;5.30;;
16826;SDS011;8530;49.540;8.576;2023-01-28T10:08:34;5.33;;;4.83;;
16826;SDS011;8530;49.540;8.576;2023-01-28T10:11:15;6.23;;;5.47;;
16826;SDS011;8530;49.540;8.576;2023-01-28T10:13:46;5.70;;;5.20;;
16826;SDS011;8530;49.540;8.576;2023-01-28T10:16:22;9.20;;;6.13;;
16826;SDS011;8530;49.540;8.576;2023-01-28T10:18:55;6.23;;;5.73;;
16826;SDS011;8530;49.540;8.576;2023-01-28T10:21:27;7.30;;;6.67;;
16826;SDS011;8530;49.540;8.576;2023-01-28T10:24:02;7.97;;;5.90;;
16826;SDS011;8530;49.540;8.576;2023-01-28T10:26:36;6.00;;;5.40;;
16826;SDS011;8530;49.540;8.576;2023-01-28T10:29:08;6.10;;;5.20;;
16826;SDS011;8530;49.540;8.576;2023-01-28T10:31:40;6.93;;;5.47;;
16826;SDS011;8530;49.540;8.576;2023-01-28T10:34:16;6.00;;;5.40;;
16826;SDS011;8530;49.540;8.576;2023-01-28T10:36:43;8.20;;;5.47;;
16826;SDS011;8530;49.540;8.576;2023-01-28T10:39:10;5.70;;;5.20;;
16826;SDS011;8530;49.540;8.576;2023-01-28T10:41:41;8.10;;;4.50;;
16826;SDS011;8530;49.540;8.576;2023-01-28T10:44:09;7.67;;;5.70;;
16826;SDS011;8530;49.540;8.576;2023-01-28T10:46:42;6.80;;;5.10;;
16826;SDS011;8530;49.540;8.576;2023-01-28T10:49:12;5.30;;;4.90;;
16826;SDS011;8530;49.540;8.576;2023-01-28T10:51:44;6.50;;;5.10;;
16826;SDS011;8530;49.540;8.576;2023-01-28T10:54:16;6.07;;;5.47;;
16826;SDS011;8530;49.540;8.576;2023-01-28T10:56:46;5.20;;;4.60;;
16826;SDS011;8530;49.540;8.576;2023-01-28T10:59:18;9.73;;;5.17;;
16826;SDS011;8530;49.540;8.576;2023-01-28T11:01:48;5.60;;;5.10;;
16826;SDS011;8530;49.540;8.576;2023-01-28T11:11:00;4.90;;;3.63;;
16826;SDS011;8530;49.540;8.576;2023-01-28T11:13:28;4.43;;;4.10;;
16826;SDS011;8530;49.540;8.576;2023-01-28T11:15:57;4.40;;;4.10;;
16826;SDS011;8530;49.540;8.576;2023-01-28T11:18:27;5.77;;;4.23;;
16826;SDS011;8530;49.540;8.576;2023-01-28T11:20:57;4.97;;;4.47;;
16826;SDS011;8530;49.540;8.576;2023-01-28T11:23:28;4.90;;;4.10;;
16826;SDS011;8530;49.540;8.576;2023-01-28T11:25:58;7.00;;;5.10;;
16826;SDS011;8530;49.540;8.576;2023-01-28T11:28:29;4.57;;;4.17;;
16826;SDS011;8530;49.540;8.576;2023-01-28T11:30:56;5.00;;;4.50;;
16826;SDS011;8530;49.540;8.576;2023-01-28T11:33:26;4.70;;;4.40;;
16826;SDS011;8530;49.540;8.576;2023-01-28T11:36:03;6.30;;;5.57;;
16826;SDS011;8530;49.540;8.576;2023-01-28T11:38:33;4.20;;;3.80;;
16826;SDS011;8530;49.540;8.576;2023-01-28T11:41:00;4.63;;;4.23;;
16826;SDS011;8530;49.540;8.576;2023-01-28T11:43:27;9.20;;;4.43;;
16826;SDS011;8530;49.540;8.576;2023-01-28T11:45:59;8.00;;;4.20;;
16826;SDS011;8530;49.540;8.576;2023-01-28T11:48:40;4.57;;;4.17;;
16826;SDS011;8530;49.540;8.576;2023-01-28T11:51:19;4.87;;;4.03;;
16826;SDS011;8530;49.540;8.576;2023-01-28T11:53:59;4.50;;;4.10;;
16826;SDS011;8530;49.540;8.576;2023-01-28T11:56:43;5.63;;;4.10;;
16826;SDS011;8530;49.540;8.576;2023-01-28T11:59:21;4.63;;;4.23;;
16826;SDS011;8530;49.540;8.576;2023-01-28T12:01:59;5.77;;;4.90;;
16826;SDS011;8530;49.540;8.576;2023-01-28T12:04:35;5.23;;;4.50;;
16826;SDS011;8530;49.540;8.576;2023-01-28T12:07:29;4.50;;;4.10;;
16826;SDS011;8530;49.540;8.576;2023-01-28T12:10:10;5.87;;;4.00;;
16826;SDS011;8530;49.540;8.576;2023-01-28T12:12:52;4.07;;;3.67;;
16826;SDS011;8530;49.540;8.576;2023-01-28T12:15:58;4.70;;;3.83;;
16826;SDS011;8530;49.540;8.576;2023-01-28T12:18:52;4.47;;;4.07;;
16826;SDS011;8530;49.540;8.576;2023-01-28T12:21:51;3.73;;;3.43;;
16826;SDS011;8530;49.540;8.576;2023-01-28T12:24:31;4.40;;;4.00;;
16826;SDS011;8530;49.540;8.576;2023-01-28T12:27:09;5.17;;;4.70;;
16826;SDS011;8530;49.540;8.576;2023-01-28T12:29:51;4.00;;;3.70;;
16826;SDS011;8530;49.540;8.576;2023-01-28T12:32:34;5.67;;;3.53;;
16826;SDS011;8530;49.540;8.576;2023-01-28T12:37:58;6.33;;;4.37;;
16826;SDS011;8530;49.540;8.576;2023-01-28T12:40:32;4.90;;;4.03;;
16826;SDS011;8530;49.540;8.576;2023-01-28T12:43:17;3.97;;;3.57;;
16826;SDS011;8530;49.540;8.576;2023-01-28T12:45:50;3.57;;;3.27;;
16826;SDS011;8530;49.540;8.576;2023-01-28T12:48:23;4.27;;;3.97;;
16826;SDS011;8530;49.540;8.576;2023-01-28T12:50:56;4.87;;;4.37;;
16826;SDS011;8530;49.540;8.576;2023-01-28T12:53:27;4.03;;;3.63;;
16826;SDS011;8530;49.540;8.576;2023-01-28T12:56:02;5.90;;;4.03;;
16826;SDS011;8530;49.540;8.576;2023-01-28T12:58:35;4.87;;;4.47;;
16826;SDS011;8530;49.540;8.576;2023-01-28T13:01:06;7.27;;;4.17;;
16826;SDS011;8530;49.540;8.576;2023-01-28T13:03:40;3.93;;;3.53;;
16826;SDS011;8530;49.540;8.576;2023-01-28T13:06:16;4.60;;;4.20;;
16826;SDS011;8530;49.540;8.576;2023-01-28T13:08:48;4.87;;;4.20;;
16826;SDS011;8530;49.540;8.576;2023-01-28T13:11:21;5.30;;;4.47;;
16826;SDS011;8530;49.540;8.576;2023-01-28T13:13:58;5.40;;;4.90;;
16826;SDS011;8530;49.540;8.576;2023-01-28T13:16:25;4.53;;;4.13;;
16826;SDS011;8530;49.540;8.576;2023-01-28T13:18:53;5.30;;;4.77;;
16826;SDS011;8530;49.540;8.576;2023-01-28T13:21:31;4.50;;;4.10;;
16826;SDS011;8530;49.540;8.576;2023-01-28T13:24:03;4.73;;;4.33;;
16826;SDS011;8530;49.540;8.576;2023-01-28T13:26:36;9.63;;;4.13;;
16826;SDS011;8530;49.540;8.576;2023-01-28T13:29:18;5.07;;;4.57;;
16826;SDS011;8530;49.540;8.576;2023-01-28T13:31:53;4.53;;;4.20;;
16826;SDS011;8530;49.540;8.576;2023-01-28T13:34:27;4.20;;;3.90;;
16826;SDS011;8530;49.540;8.576;2023-01-28T13:36:58;6.00;;;4.67;;
16826;SDS011;8530;49.540;8.576;2023-01-28T13:39:57;4.90;;;4.50;;
16826;SDS011;8530;49.540;8.576;2023-01-28T13:42:28;4.47;;;3.70;;
16826;SDS011;8530;49.540;8.576;2023-01-28T13:45:07;6.37;;;5.00;;
16826;SDS011;8530;49.540;8.576;2023-01-28T13:47:46;4.00;;;3.70;;
16826;SDS011;8530;49.540;8.576;2023-01-28T13:50:17;6.70;;;5.33;;
16826;SDS011;8530;49.540;8.576;2023-01-28T13:52:49;5.50;;;5.00;;
16826;SDS011;8530;49.540;8.576;2023-01-28T13:55:20;4.87;;;4.40;;
16826;SDS011;8530;49.540;8.576;2023-01-28T14:01:06;6.50;;;5.90;;
16826;SDS011;8530;49.540;8.576;2023-01-28T14:03:54;5.30;;;4.67;;
16826;SDS011;8530;49.540;8.576;2023-01-28T14:06:36;9.33;;;6.17;;
16826;SDS011;8530;49.540;8.576;2023-01-28T14:09:30;5.77;;;5.27;;
16826;SDS011;8530;49.540;8.576;2023-01-28T14:12:19;5.43;;;4.70;;
16826;SDS011;8530;49.540;8.576;2023-01-28T14:18:14;4.57;;;4.17;;
16826;SDS011;8530;49.540;8.576;2023-01-28T14:20:48;4.30;;;3.90;;
16826;SDS011;8530;49.540;8.576;2023-01-28T14:23:16;4.77;;;4.37;;
16826;SDS011;8530;49.540;8.576;2023-01-28T14:25:49;4.70;;;4.23;;
16826;SDS011;8530;49.540;8.576;2023-01-28T14:28:27;4.57;;;4.17;;
16826;SDS011;8530;49.540;8.576;2023-01-28T14:31:03;5.27;;;4.77;;
16826;SDS011;8530;49.540;8.576;2023-01-28T14:33:34;7.20;;;5.20;;
16826;SDS011;8530;49.540;8.576;2023-01-28T14:36:02;5.60;;;5.10;;
16826;SDS011;8530;49.540;8.576;2023-01-28T14:38:30;14.00;;;5.10;;
16826;SDS011;8530;49.540;8.576;2023-01-28T14:41:04;5.97;;;5.40;;
16826;SDS011;8530;49.540;8.576;2023-01-28T14:43:32;6.90;;;6.07;;
16826;SDS011;8530;49.540;8.576;2023-01-28T14:46:05;5.97;;;5.47;;
16826;SDS011;8530;49.540;8.576;2023-01-28T14:48:40;5.10;;;4.70;;
16826;SDS011;8530;49.540;8.576;2023-01-28T14:51:20;5.97;;;4.90;;
16826;SDS011;8530;49.540;8.576;2023-01-28T14:54:08;6.23;;;5.33;;
16826;SDS011;8530;49.540;8.576;2023-01-28T14:56:53;5.43;;;4.93;;
16826;SDS011;8530;49.540;8.576;2023-01-28T14:59:40;6.60;;;5.90;;
16826;SDS011;8530;49.540;8.576;2023-01-28T15:02:15;6.97;;;4.83;;
16826;SDS011;8530;49.540;8.576;2023-01-28T15:04:43;5.00;;;4.60;;
16826;SDS011;8530;49.540;8.576;2023-01-28T15:07:17;6.00;;;5.40;;
16826;SDS011;8530;49.540;8.576;2023-01-28T15:09:47;7.27;;;6.10;;
16826;SDS011;8530;49.540;8.576;2023-01-28T15:12:25;5.60;;;5.10;;
16826;SDS011;8530;49.540;8.576;2023-01-28T15:14:52;5.30;;;4.90;;
16826;SDS011;8530;49.540;8.576;2023-01-28T15:17:23;9.93;;;5.67;;
16826;SDS011;8530;49.540;8.576;2023-01-28T15:19:53;6.67;;;5.47;;
16826;SDS011;8530;49.540;8.576;2023-01-28T15:22:21;5.70;;;5.23;;
16826;SDS011;8530;49.540;8.576;2023-01-28T15:24:52;5.90;;;4.57;;
16826;SDS011;8530;49.540;8.576;2023-01-28T15:27:23;6.43;;;5.30;;
16826;SDS011;8530;49.540;8.576;2023-01-28T15:29:54;5.93;;;5.43;;
16826;SDS011;8530;49.540;8.576;2023-01-28T15:32:22;6.87;;;5.70;;
16826;SDS011;8530;49.540;8.576;2023-01-28T15:34:50;4.93;;;4.50;;
16826;SDS011;8530;49.540;8.576;2023-01-28T15:37:17;4.53;;;4.13;;
16826;SDS011;8530;49.540;8.576;2023-01-28T15:39:45;5.33;;;4.80;;
16826;SDS011;8530;49.540;8.576;2023-01-28T15:42:18;8.80;;;5.00;;
16826;SDS011;8530;49.540;8.576;2023-01-28T15:44:46;11.17;;;7.70;;
16826;SDS011;8530;49.540;8.576;2023-01-28T15:47:15;5.57;;;5.07;;
16826;SDS011;8530;49.540;8.576;2023-01-28T15:49:46;6.03;;;5.50;;
16826;SDS011;8530;49.540;8.576;2023-01-28T15:52:16;6.00;;;5.40;;
16826;SDS011;8530;49.540;8.576;2023-01-28T15:54:44;10.20;;;6.23;;
16826;SDS011;8530;49.540;8.576;2023-01-28T15:57:18;5.73;;;5.23;;
16826;SDS011;8530;49.540;8.576;2023-01-28T15:59:46;7.40;;;5.43;;
16826;SDS011;8530;49.540;8.576;2023-01-28T16:02:18;7.03;;;6.33;;